Time;durP1;ratioP1;P1;durP2;ratioP2;P2;SDS_P1;SDS_P2;PMS_P1;PMS_P2;Temp;Humidity;BMP_temperature;BMP_pressure;BME280_temperature;BME280_humidity;BME280_pressure;Samples;Min_cycle;Max_cycle;Signal;HPM_P1;HPM_P2
2021/11/18 00:01:21;;;;;;;9.07;7.83;;;12.10;60.70;;;;;;5023460;28;20447;-47
2021/11/18 00:03:47;;;;;;;9.27;8.30;;;12.20;60.50;;;;;;5021530;28;20447;-48
2021/11/18 00:06:13;;;;;;;8.57;7.73;;;11.90;61.00;;;;;;5022578;28;20432;-49
2021/11/18 00:08:39;;;;;;;9.13;7.80;;;11.80;61.70;;;;;;5030556;28;20781;-49
2021/11/18 00:11:07;;;;;;;9.30;8.40;;;11.80;62.10;;;;;;5030641;28;20779;-48
2021/11/18 00:13:39;;;;;;;11.73;8.40;;;11.80;62.00;;;;;;5026593;28;20476;-51
2021/11/18 00:16:05;;;;;;;8.90;8.00;;;11.80;62.00;;;;;;5026282;28;20538;-51
2021/11/18 00:18:33;;;;;;;9.00;7.87;;;11.90;62.10;;;;;;5028130;28;20556;-50
2021/11/18 00:21:06;;;;;;;8.00;7.20;;;12.00;61.80;;;;;;5023133;28;20220;-51
2021/11/18 00:23:36;;;;;;;7.97;7.17;;;11.90;61.30;;;;;;5022058;28;20890;-48
2021/11/18 00:26:03;;;;;;;8.60;7.20;;;12.00;61.60;;;;;;5022354;28;20439;-50
2021/11/18 00:28:29;;;;;;;12.80;8.10;;;12.00;61.40;;;;;;5025244;28;20440;-47
2021/11/18 00:30:54;;;;;;;7.40;6.70;;;12.10;61.30;;;;;;5021622;28;20432;-49
2021/11/18 00:33:21;;;;;;;9.93;7.30;;;12.10;60.90;;;;;;5025185;28;20193;-49
2021/11/18 00:35:48;;;;;;;7.33;6.63;;;12.20;60.70;;;;;;5027075;28;20263;-50
2021/11/18 00:38:13;;;;;;;9.53;7.43;;;12.30;60.70;;;;;;5025655;28;20533;-47
2021/11/18 00:40:50;;;;;;;8.43;7.50;;;12.30;60.40;;;;;;5023016;28;20440;-51
2021/11/18 00:43:17;;;;;;;9.33;8.03;;;12.30;60.20;;;;;;5025094;28;20640;-49
2021/11/18 00:45:43;;;;;;;10.03;9.00;;;12.20;60.40;;;;;;5022012;28;20946;-47
2021/11/18 00:48:10;;;;;;;11.37;9.80;;;12.10;60.70;;;;;;5021802;28;20464;-47
2021/11/18 00:50:46;;;;;;;11.30;9.63;;;11.90;61.70;;;;;;5025369;28;21151;-52
2021/11/18 00:53:11;;;;;;;9.57;8.63;;;11.80;62.30;;;;;;5026550;28;20466;-48
2021/11/18 00:55:37;;;;;;;10.97;9.80;;;11.90;62.20;;;;;;5022387;28;20444;-47
2021/11/18 00:58:05;;;;;;;10.40;9.33;;;12.00;62.20;;;;;;5021852;28;20290;-47
2021/11/18 01:00:33;;;;;;;11.77;9.63;;;11.80;62.50;;;;;;5024949;28;20463;-47
2021/11/18 01:03:00;;;;;;;12.10;10.40;;;11.90;62.70;;;;;;5023075;28;20456;-51
2021/11/18 01:05:29;;;;;;;11.87;10.63;;;11.80;62.50;;;;;;5021679;28;20532;-47
2021/11/18 01:07:56;;;;;;;11.60;9.73;;;11.90;62.70;;;;;;5022630;28;20494;-47
2021/11/18 01:10:25;;;;;;;12.40;10.17;;;12.00;62.70;;;;;;5026591;28;20451;-51
2021/11/18 01:12:51;;;;;;;9.77;8.73;;;12.10;62.40;;;;;;5026619;28;20534;-50
2021/11/18 01:15:21;;;;;;;11.83;10.10;;;12.20;62.10;;;;;;5030121;28;20444;-47
2021/11/18 01:17:47;;;;;;;11.87;10.50;;;12.20;62.10;;;;;;5024735;28;20545;-47
2021/11/18 01:20:14;;;;;;;11.63;10.27;;;12.20;62.00;;;;;;5029822;28;20447;-48
2021/11/18 01:22:40;;;;;;;10.53;9.33;;;12.30;62.00;;;;;;5026398;28;20444;-47
2021/11/18 01:25:07;;;;;;;10.43;9.43;;;12.20;61.60;;;;;;5020429;28;20440;-48
2021/11/18 01:27:33;;;;;;;10.90;9.53;;;12.10;62.00;;;;;;5020173;28;20458;-47
2021/11/18 01:29:59;;;;;;;11.60;10.60;;;11.90;62.80;;;;;;5024406;28;20439;-48
2021/11/18 01:32:24;;;;;;;10.43;9.33;;;11.90;63.20;;;;;;5021337;28;20196;-48
2021/11/18 01:34:50;;;;;;;15.27;10.90;;;11.80;63.80;;;;;;5025505;28;20695;-50
2021/11/18 01:37:15;;;;;;;11.57;10.37;;;11.60;64.40;;;;;;5021910;28;20232;-51
2021/11/18 01:39:41;;;;;;;14.30;10.87;;;11.60;65.10;;;;;;5030234;28;20208;-48
2021/11/18 01:42:07;;;;;;;12.63;10.30;;;11.60;65.00;;;;;;5034196;28;20199;-48
2021/11/18 01:44:40;;;;;;;12.20;11.00;;;11.70;64.90;;;;;;5029471;28;20259;-51
2021/11/18 01:47:08;;;;;;;13.97;11.57;;;11.80;64.50;;;;;;5025742;28;20436;-52
2021/11/18 01:49:34;;;;;;;12.23;10.90;;;11.80;64.30;;;;;;5028645;28;20435;-51
2021/11/18 01:52:03;;;;;;;15.20;12.17;;;11.80;64.70;;;;;;5024706;28;20955;-50
2021/11/18 01:54:33;;;;;;;11.93;10.73;;;11.90;64.50;;;;;;5024042;28;20458;-52
2021/11/18 01:57:00;;;;;;;14.20;11.83;;;12.00;64.10;;;;;;5026283;28;20557;-52
2021/11/18 01:59:30;;;;;;;13.30;10.70;;;12.20;63.80;;;;;;5026509;28;20451;-52
2021/11/18 02:01:56;;;;;;;11.00;9.77;;;12.20;63.60;;;;;;5025207;28;20477;-51
2021/11/18 02:04:26;;;;;;;11.00;9.90;;;12.30;63.40;;;;;;5027228;28;20468;-51
2021/11/18 02:07:00;;;;;;;10.77;9.00;;;12.30;63.10;;;;;;5023595;28;20849;-49
2021/11/18 02:09:27;;;;;;;11.70;10.60;;;12.40;63.00;;;;;;5025438;28;20443;-50
2021/11/18 02:12:07;;;;;;;12.03;10.27;;;12.40;63.00;;;;;;5025045;28;20454;-49
2021/11/18 02:14:33;;;;;;;11.70;10.13;;;12.40;62.90;;;;;;5032484;28;20436;-48
2021/11/18 02:17:02;;;;;;;11.33;9.20;;;12.40;62.60;;;;;;5026565;28;20918;-52
2021/11/18 02:19:36;;;;;;;13.00;10.60;;;12.30;62.90;;;;;;5029407;28;20444;-50
2021/11/18 02:22:03;;;;;;;11.90;10.43;;;12.20;63.10;;;;;;5023890;28;20984;-51
2021/11/18 02:24:33;;;;;;;10.30;9.00;;;12.20;63.30;;;;;;5029039;28;20751;-52
2021/11/18 02:27:00;;;;;;;11.07;9.93;;;12.30;63.40;;;;;;5027526;28;20530;-49
2021/11/18 02:29:25;;;;;;;11.17;9.97;;;12.30;63.20;;;;;;5021553;28;20476;-49
2021/11/18 02:31:57;;;;;;;9.77;8.77;;;12.30;63.20;;;;;;5022911;28;20575;-50
2021/11/18 02:34:34;;;;;;;10.37;9.27;;;12.30;63.20;;;;;;5025400;28;20186;-47
2021/11/18 02:37:00;;;;;;;12.73;10.97;;;12.20;63.20;;;;;;5031907;28;20450;-49
2021/11/18 02:39:26;;;;;;;10.27;9.10;;;12.30;63.10;;;;;;5025957;28;20436;-50
2021/11/18 02:41:51;;;;;;;10.73;9.43;;;12.20;63.10;;;;;;5027218;28;20192;-50
2021/11/18 02:44:17;;;;;;;14.10;10.70;;;12.30;63.20;;;;;;5025325;28;20217;-49
2021/11/18 02:46:43;;;;;;;13.63;12.10;;;12.30;63.00;;;;;;5024007;28;20204;-48
2021/11/18 02:49:08;;;;;;;14.27;10.40;;;12.40;62.90;;;;;;5026530;28;20208;-48
2021/11/18 02:51:34;;;;;;;11.10;9.73;;;12.40;62.80;;;;;;5026433;28;20189;-51
2021/11/18 02:54:01;;;;;;;11.10;10.00;;;12.40;62.90;;;;;;5024359;28;20657;-51
2021/11/18 02:56:29;;;;;;;14.60;10.17;;;12.40;63.00;;;;;;5026227;28;20189;-47
2021/11/18 02:58:55;;;;;;;10.10;9.10;;;12.30;63.00;;;;;;5030271;28;21186;-48
2021/11/18 03:01:25;;;;;;;11.43;9.40;;;12.30;63.20;;;;;;5031931;28;20440;-48
2021/11/18 03:03:51;;;;;;;12.57;11.37;;;12.40;63.00;;;;;;5032501;28;20468;-47
2021/11/18 03:06:18;;;;;;;13.03;9.97;;;12.40;63.00;;;;;;5031268;28;20428;-48
2021/11/18 03:08:45;;;;;;;10.50;9.40;;;12.40;63.00;;;;;;5032430;28;20432;-48
2021/11/18 03:11:11;;;;;;;11.40;9.80;;;12.40;62.90;;;;;;5026253;28;20432;-50
2021/11/18 03:13:37;;;;;;;11.90;9.93;;;12.40;63.00;;;;;;5032168;28;20436;-47
2021/11/18 03:16:05;;;;;;;11.30;9.27;;;12.50;63.10;;;;;;5030745;28;20448;-48
2021/11/18 03:18:30;;;;;;;11.43;10.23;;;12.50;63.20;;;;;;5032544;28;20578;-47
2021/11/18 03:20:59;;;;;;;10.33;9.30;;;12.50;63.00;;;;;;5032681;28;20597;-48
2021/11/18 03:23:26;;;;;;;10.23;9.20;;;12.40;62.80;;;;;;5032812;28;20554;-47
2021/11/18 03:25:52;;;;;;;9.47;8.57;;;12.40;62.60;;;;;;5030624;28;20442;-48
2021/11/18 03:28:19;;;;;;;11.10;9.80;;;12.10;63.10;;;;;;5032033;28;20832;-47
2021/11/18 03:30:47;;;;;;;10.97;9.87;;;12.10;63.80;;;;;;5031938;28;20451;-51
2021/11/18 03:33:19;;;;;;;12.83;10.30;;;12.10;63.90;;;;;;5033334;28;20436;-49
2021/11/18 03:35:45;;;;;;;10.73;9.73;;;12.20;63.90;;;;;;5031436;28;20436;-50
2021/11/18 03:38:12;;;;;;;11.60;10.07;;;12.10;63.80;;;;;;5032333;28;20512;-48
2021/11/18 03:40:39;;;;;;;12.13;10.40;;;12.10;64.00;;;;;;5031401;28;21320;-52
2021/11/18 03:43:09;;;;;;;11.20;10.07;;;12.00;64.30;;;;;;5032176;28;20431;-50
2021/11/18 03:45:37;;;;;;;11.20;9.30;;;12.10;64.30;;;;;;5029355;28;20440;-50
2021/11/18 03:48:03;;;;;;;11.83;10.30;;;12.10;64.30;;;;;;5032207;28;20932;-51
2021/11/18 03:50:28;;;;;;;13.13;10.57;;;12.20;64.50;;;;;;5030525;28;20462;-51
2021/11/18 03:52:54;;;;;;;12.03;10.73;;;12.10;64.30;;;;;;5032807;28;20436;-49
2021/11/18 03:55:20;;;;;;;11.90;10.60;;;12.20;64.30;;;;;;5030528;28;20190;-48
2021/11/18 03:57:46;;;;;;;12.80;11.50;;;12.10;64.30;;;;;;5031139;28;20217;-52
2021/11/18 04:00:17;;;;;;;11.30;9.90;;;12.10;64.50;;;;;;5031342;28;20440;-50
2021/11/18 04:02:44;;;;;;;10.90;9.73;;;12.00;64.40;;;;;;5025300;28;20436;-52
2021/11/18 04:05:10;;;;;;;12.10;10.33;;;11.90;65.20;;;;;;5027948;28;20951;-47
2021/11/18 04:07:39;;;;;;;14.03;11.20;;;11.80;65.50;;;;;;5030625;28;20493;-50
2021/11/18 04:10:11;;;;;;;11.17;10.03;;;11.90;65.60;;;;;;5031856;28;20193;-49
2021/11/18 04:12:39;;;;;;;11.73;10.40;;;11.90;65.40;;;;;;5024272;28;20443;-50
2021/11/18 04:15:06;;;;;;;11.80;10.00;;;12.00;65.10;;;;;;5025046;28;20896;-50
2021/11/18 04:17:32;;;;;;;11.90;10.70;;;12.00;65.00;;;;;;5021736;28;20594;-48
2021/11/18 04:19:57;;;;;;;12.40;10.93;;;12.10;64.80;;;;;;5026356;28;20531;-48
2021/11/18 04:22:23;;;;;;;12.60;11.23;;;12.20;64.50;;;;;;5024208;28;20196;-48
2021/11/18 04:24:49;;;;;;;13.67;11.33;;;12.30;64.20;;;;;;5023563;28;20713;-51
2021/11/18 04:27:16;;;;;;;12.90;10.90;;;12.30;64.00;;;;;;5026353;28;20190;-52
2021/11/18 04:29:41;;;;;;;12.97;11.57;;;12.30;63.90;;;;;;5026081;28;20481;-48
2021/11/18 04:32:11;;;;;;;12.90;9.83;;;12.30;63.90;;;;;;5027666;28;20505;-49
2021/11/18 04:34:37;;;;;;;13.90;10.00;;;12.40;64.00;;;;;;5024563;28;20197;-50
2021/11/18 04:37:04;;;;;;;11.30;10.10;;;12.40;64.80;;;;;;5026890;28;20444;-52
2021/11/18 04:39:30;;;;;;;11.90;10.40;;;12.40;63.80;;;;;;5021802;28;21007;-50
2021/11/18 04:41:56;;;;;;;11.50;10.30;;;12.40;63.70;;;;;;5024286;28;20452;-52
2021/11/18 04:44:22;;;;;;;15.73;10.90;;;12.50;63.50;;;;;;5027360;28;20454;-48
2021/11/18 04:46:49;;;;;;;12.67;11.00;;;12.50;63.40;;;;;;5026339;28;20455;-52
2021/11/18 04:49:15;;;;;;;14.83;11.00;;;12.50;63.50;;;;;;5025176;28;20432;-52
2021/11/18 04:51:41;;;;;;;11.50;10.30;;;12.60;63.40;;;;;;5026788;28;20444;-51
2021/11/18 04:54:07;;;;;;;11.97;10.23;;;12.60;63.20;;;;;;5023342;28;20835;-51
2021/11/18 04:56:34;;;;;;;12.50;11.23;;;12.50;63.00;;;;;;5025690;28;20444;-51
2021/11/18 04:59:00;;;;;;;13.43;11.20;;;12.60;62.90;;;;;;5023892;28;20479;-52
2021/11/18 05:01:26;;;;;;;12.90;10.40;;;12.60;62.80;;;;;;5022666;28;20631;-52
2021/11/18 05:03:53;;;;;;;12.30;9.57;;;12.60;62.70;;;;;;5030923;28;20436;-49
2021/11/18 05:06:19;;;;;;;12.80;11.00;;;12.60;62.80;;;;;;5025383;28;21285;-51
2021/11/18 05:08:45;;;;;;;12.13;10.60;;;12.60;62.90;;;;;;5023741;28;20954;-50
2021/11/18 05:11:11;;;;;;;11.57;9.77;;;12.60;62.70;;;;;;5029480;28;20489;-52
2021/11/18 05:13:38;;;;;;;14.87;10.90;;;12.50;62.90;;;;;;5031407;28;20284;-50
2021/11/18 05:16:06;;;;;;;12.83;10.53;;;12.50;63.00;;;;;;5029625;28;20443;-50
2021/11/18 05:18:32;;;;;;;11.60;10.40;;;12.50;63.00;;;;;;5030949;28;20553;-46
2021/11/18 05:20:59;;;;;;;13.20;10.80;;;12.60;62.90;;;;;;5030009;28;21013;-49
2021/11/18 05:23:27;;;;;;;11.30;10.13;;;12.60;62.70;;;;;;5029681;28;20812;-48
2021/11/18 05:25:52;;;;;;;14.10;9.53;;;12.50;62.70;;;;;;5029578;28;20436;-50
2021/11/18 05:28:18;;;;;;;12.17;10.90;;;12.60;62.90;;;;;;5030538;28;20487;-46
2021/11/18 05:30:44;;;;;;;10.90;9.90;;;12.60;62.70;;;;;;5030297;28;20462;-48
2021/11/18 05:33:12;;;;;;;19.83;10.50;;;12.60;62.50;;;;;;5029838;28;20190;-50
2021/11/18 05:35:39;;;;;;;14.00;11.33;;;12.60;62.40;;;;;;5026425;28;20450;-50
2021/11/18 05:38:06;;;;;;;14.23;11.30;;;12.60;62.40;;;;;;5031041;28;20479;-50
2021/11/18 05:40:34;;;;;;;18.90;12.70;;;12.60;62.40;;;;;;5029321;28;20850;-49
2021/11/18 05:43:00;;;;;;;12.53;10.87;;;12.60;62.40;;;;;;5030883;28;20822;-50
2021/11/18 05:45:29;;;;;;;16.13;12.27;;;12.60;62.60;;;;;;5030062;28;20446;-50
2021/11/18 05:47:55;;;;;;;14.43;11.63;;;12.60;62.80;;;;;;5030485;28;20438;-50
2021/11/18 05:50:23;;;;;;;11.87;10.63;;;12.50;62.70;;;;;;5030254;28;20440;-51
2021/11/18 05:52:49;;;;;;;13.80;12.37;;;12.60;62.90;;;;;;5028962;28;20542;-50
2021/11/18 05:55:18;;;;;;;12.97;11.60;;;12.60;62.80;;;;;;5030042;28;20432;-47
2021/11/18 05:57:46;;;;;;;15.03;12.20;;;12.60;62.90;;;;;;5033187;28;20994;-46
2021/11/18 06:00:15;;;;;;;12.97;10.90;;;12.50;63.20;;;;;;5029997;28;20805;-50
2021/11/18 06:02:40;;;;;;;12.97;11.37;;;12.50;63.30;;;;;;5028866;28;20918;-49
2021/11/18 06:05:07;;;;;;;13.60;11.80;;;12.40;63.60;;;;;;5028751;28;20425;-50
2021/11/18 06:07:33;;;;;;;13.80;11.70;;;12.40;63.80;;;;;;5030102;28;20201;-46
2021/11/18 06:09:59;;;;;;;13.17;11.30;;;12.40;64.10;;;;;;5029324;28;20431;-46
2021/11/18 06:12:25;;;;;;;15.83;11.73;;;12.30;64.10;;;;;;5024928;28;20445;-50
2021/11/18 06:14:54;;;;;;;13.03;10.20;;;12.40;64.10;;;;;;5026276;28;20958;-46
2021/11/18 06:17:19;;;;;;;13.83;9.40;;;12.50;64.60;;;;;;5020185;28;20487;-45
2021/11/18 06:19:45;;;;;;;15.30;10.60;;;12.50;65.30;;;;;;5022789;28;20439;-48
2021/11/18 06:22:11;;;;;;;13.07;11.00;;;12.70;66.00;;;;;;5023111;28;20435;-48
2021/11/18 06:24:37;;;;;;;12.90;10.83;;;12.90;66.00;;;;;;5023780;28;20217;-51
2021/11/18 06:27:04;;;;;;;15.80;9.60;;;13.10;65.20;;;;;;5033103;28;20205;-48
2021/11/18 06:29:30;;;;;;;17.53;10.97;;;13.20;64.60;;;;;;5024950;28;20547;-48
2021/11/18 06:31:59;;;;;;;10.53;9.53;;;13.20;64.10;;;;;;5027192;28;20474;-50
2021/11/18 06:34:25;;;;;;;16.30;13.43;;;13.20;63.30;;;;;;5027555;28;21273;-50
2021/11/18 06:36:52;;;;;;;24.43;13.73;;;13.30;63.50;;;;;;5027158;28;20950;-45
2021/11/18 06:39:18;;;;;;;14.13;11.93;;;13.50;63.10;;;;;;5031900;28;21032;-49
2021/11/18 06:41:44;;;;;;;14.27;10.90;;;13.50;62.30;;;;;;5028370;28;20432;-48
2021/11/18 06:44:11;;;;;;;11.33;9.80;;;13.50;61.70;;;;;;5033545;28;21002;-47
2021/11/18 06:46:36;;;;;;;15.40;11.97;;;13.50;61.80;;;;;;5031667;28;20432;-50
2021/11/18 06:49:03;;;;;;;15.57;11.50;;;13.60;61.60;;;;;;5033084;28;20471;-45
2021/11/18 06:51:29;;;;;;;14.27;11.63;;;13.60;61.50;;;;;;5032158;28;20664;-49
2021/11/18 06:53:58;;;;;;;17.27;12.20;;;13.80;61.20;;;;;;5032432;28;20467;-48
2021/11/18 06:56:25;;;;;;;16.60;11.37;;;13.80;60.80;;;;;;5032109;28;20424;-49
2021/11/18 06:58:51;;;;;;;12.80;10.73;;;13.80;60.50;;;;;;5025142;28;20494;-48
2021/11/18 07:01:17;;;;;;;14.77;12.37;;;13.90;60.60;;;;;;5030938;28;20432;-44
2021/11/18 07:03:43;;;;;;;14.03;12.57;;;14.00;60.30;;;;;;5032719;28;20439;-46
2021/11/18 07:06:10;;;;;;;14.13;12.47;;;14.00;59.80;;;;;;5032009;28;20202;-47
2021/11/18 07:08:36;;;;;;;15.17;12.17;;;14.00;59.60;;;;;;5033070;28;20663;-46
2021/11/18 07:11:03;;;;;;;14.67;12.07;;;14.00;59.80;;;;;;5031880;28;20420;-46
2021/11/18 07:13:32;;;;;;;16.70;13.10;;;14.00;59.70;;;;;;5031277;28;20201;-46
2021/11/18 07:16:00;;;;;;;13.10;11.07;;;14.00;59.60;;;;;;5031182;28;20452;-46
2021/11/18 07:18:26;;;;;;;15.97;14.10;;;14.00;59.70;;;;;;5031061;28;20503;-51
2021/11/18 07:20:52;;;;;;;16.33;11.83;;;14.00;59.80;;;;;;5032115;28;20436;-46
2021/11/18 07:23:18;;;;;;;15.47;12.87;;;14.00;59.60;;;;;;5033372;28;20440;-45
2021/11/18 07:25:45;;;;;;;13.93;12.47;;;14.00;59.60;;;;;;5029349;28;20532;-50
2021/11/18 07:28:11;;;;;;;14.90;12.00;;;14.00;59.90;;;;;;5032960;28;21332;-46
2021/11/18 07:30:38;;;;;;;16.73;11.80;;;14.00;59.90;;;;;;5031583;28;20427;-48
2021/11/18 07:33:04;;;;;;;19.00;13.70;;;14.00;59.80;;;;;;5029692;28;20194;-46
2021/11/18 07:35:30;;;;;;;19.50;14.27;;;14.00;59.80;;;;;;5030823;28;20420;-46
2021/11/18 07:37:58;;;;;;;18.87;13.73;;;14.00;59.50;;;;;;5032845;28;20478;-50
2021/11/18 07:40:24;;;;;;;20.47;12.93;;;14.00;59.60;;;;;;5025291;28;20444;-45
2021/11/18 07:42:50;;;;;;;12.60;9.97;;;14.00;59.50;;;;;;5030619;28;20460;-51
2021/11/18 07:45:17;;;;;;;14.60;9.77;;;13.90;60.30;;;;;;5029897;28;20503;-45
2021/11/18 07:47:43;;;;;;;18.70;12.83;;;14.00;61.40;;;;;;5030893;28;20451;-47
2021/11/18 07:50:11;;;;;;;13.73;9.67;;;14.10;61.70;;;;;;5031216;28;20912;-46
2021/11/18 07:52:38;;;;;;;15.80;12.47;;;14.30;61.80;;;;;;5028598;28;20271;-50
2021/11/18 07:55:07;;;;;;;10.60;8.50;;;14.50;62.00;;;;;;5031547;28;20794;-50
2021/11/18 07:57:32;;;;;;;11.67;7.37;;;14.50;62.50;;;;;;5030556;28;20467;-50
2021/11/18 07:59:58;;;;;;;14.30;10.47;;;14.60;62.40;;;;;;5031534;28;21352;-51
2021/11/18 08:02:23;;;;;;;14.53;10.20;;;14.70;62.00;;;;;;5030983;28;20268;-48
2021/11/18 08:04:49;;;;;;;15.07;11.53;;;15.20;60.10;;;;;;5031671;28;20255;-52
2021/11/18 08:07:15;;;;;;;14.13;11.13;;;15.60;59.20;;;;;;5031536;28;20220;-48
2021/11/18 08:09:40;;;;;;;13.73;9.50;;;15.80;58.20;;;;;;5031509;28;20192;-52
2021/11/18 08:12:07;;;;;;;10.23;8.50;;;15.90;57.60;;;;;;5031404;28;20679;-51
2021/11/18 08:14:33;;;;;;;10.27;7.47;;;16.00;57.50;;;;;;5032010;28;20208;-51
2021/11/18 08:17:00;;;;;;;15.00;9.50;;;16.10;57.50;;;;;;5032060;28;21062;-50
2021/11/18 08:19:26;;;;;;;15.40;11.97;;;16.10;57.20;;;;;;5030627;28;20484;-51
2021/11/18 08:21:53;;;;;;;21.07;14.37;;;16.10;56.30;;;;;;5031234;28;20448;-51
2021/11/18 08:24:21;;;;;;;15.07;10.30;;;16.10;56.10;;;;;;5031594;28;20449;-50
2021/11/18 08:26:47;;;;;;;15.63;9.03;;;15.90;55.60;;;;;;5031335;28;20840;-51
2021/11/18 08:29:14;;;;;;;11.30;8.83;;;15.90;57.00;;;;;;5031906;28;20432;-50
2021/11/18 08:31:41;;;;;;;15.80;11.30;;;16.00;56.80;;;;;;5031555;28;20470;-52
2021/11/18 08:34:08;;;;;;;15.37;12.23;;;16.00;56.50;;;;;;5031864;28;20435;-50
2021/11/18 08:36:37;;;;;;;12.67;9.23;;;16.10;56.30;;;;;;5030749;28;20451;-51
2021/11/18 08:39:08;;;;;;;11.90;9.20;;;16.10;56.40;;;;;;5032075;28;20533;-52
2021/11/18 08:41:34;;;;;;;12.17;9.50;;;16.10;56.20;;;;;;5031400;28;20428;-47
2021/11/18 08:44:00;;;;;;;13.80;10.83;;;16.20;56.20;;;;;;5031327;28;20443;-52
2021/11/18 08:46:28;;;;;;;14.67;10.57;;;16.30;56.30;;;;;;5029155;28;20193;-52
2021/11/18 08:49:00;;;;;;;14.07;10.43;;;16.40;56.30;;;;;;5031292;28;20439;-51
2021/11/18 08:51:26;;;;;;;15.27;11.90;;;16.30;55.60;;;;;;5030853;28;20807;-48
2021/11/18 08:53:54;;;;;;;11.97;9.77;;;16.40;55.60;;;;;;5018517;28;20935;-50
2021/11/18 08:56:21;;;;;;;13.80;9.20;;;16.30;54.90;;;;;;5030285;28;20428;-49
2021/11/18 08:58:55;;;;;;;14.30;10.47;;;16.30;55.30;;;;;;5031210;28;21098;-50
2021/11/18 09:01:37;;;;;;;12.63;8.73;;;16.20;55.50;;;;;;5030479;28;20439;-50
2021/11/18 09:04:11;;;;;;;16.50;12.30;;;16.10;55.30;;;;;;5031992;28;20775;-46
2021/11/18 09:06:38;;;;;;;11.10;8.60;;;16.20;55.80;;;;;;5031075;28;20519;-46
2021/11/18 09:09:05;;;;;;;11.60;9.53;;;16.20;55.60;;;;;;5031702;28;21059;-47
2021/11/18 09:11:31;;;;;;;13.83;10.50;;;16.30;55.80;;;;;;5030262;28;20439;-47
2021/11/18 09:13:57;;;;;;;12.63;7.50;;;16.40;55.90;;;;;;5029902;28;20440;-48
2021/11/18 09:16:24;;;;;;;14.10;9.87;;;16.50;55.70;;;;;;5030099;28;20208;-51
2021/11/18 09:18:50;;;;;;;15.23;10.03;;;16.60;55.60;;;;;;5031328;28;20999;-47
2021/11/18 09:21:19;;;;;;;16.20;11.37;;;16.60;55.40;;;;;;5030117;28;20428;-51
2021/11/18 09:23:54;;;;;;;12.13;9.07;;;16.70;55.10;;;;;;5030918;28;20470;-52
2021/11/18 09:26:28;;;;;;;9.63;7.87;;;16.70;54.80;;;;;;5029025;28;20438;-47
2021/11/18 09:28:54;;;;;;;10.50;8.00;;;16.60;55.30;;;;;;5027750;28;20438;-47
2021/11/18 09:31:22;;;;;;;13.20;7.30;;;16.60;55.70;;;;;;5028267;28;20432;-47
2021/11/18 09:33:49;;;;;;;15.77;10.73;;;16.70;55.80;;;;;;5030347;28;20461;-48
2021/11/18 09:36:15;;;;;;;14.70;9.43;;;16.90;54.70;;;;;;5028126;28;20432;-49
2021/11/18 09:38:44;;;;;;;18.00;11.20;;;17.00;54.50;;;;;;5029658;28;20496;-47
2021/11/18 09:41:25;;;;;;;18.30;12.07;;;17.00;54.20;;;;;;5027409;28;20436;-48
2021/11/18 09:44:11;;;;;;;13.00;9.90;;;17.00;53.90;;;;;;5017814;28;20448;-50
2021/11/18 09:46:49;;;;;;;10.10;8.67;;;17.00;54.20;;;;;;5031694;28;21011;-47
2021/11/18 09:49:42;;;;;;;18.53;14.60;;;17.00;54.40;;;;;;5025204;28;20446;-46
2021/11/18 09:52:33;;;;;;;12.13;9.43;;;17.00;53.80;;;;;;5039575;28;20444;-47
2021/11/18 09:55:08;;;;;;;12.77;9.10;;;17.00;54.40;;;;;;5034715;28;20835;-48
2021/11/18 09:57:52;;;;;;;17.15;11.70;;;16.90;55.00;;;;;;5029271;28;20923;-46
2021/11/18 10:00:42;;;;;;;19.33;13.07;;;17.10;54.40;;;;;;5021204;28;20666;-48
2021/11/18 10:03:20;;;;;;;15.00;11.80;;;17.20;54.50;;;;;;5025724;28;20443;-48
2021/11/18 10:06:05;;;;;;;19.93;13.90;;;17.30;53.60;;;;;;5031332;28;20568;-47
2021/11/18 10:08:58;;;;;;;18.13;13.13;;;17.20;53.40;;;;;;5033193;28;20444;-47
2021/11/18 10:11:42;;;;;;;17.93;13.23;;;17.20;53.30;;;;;;5029492;28;20873;-46
2021/11/18 10:14:35;;;;;;;23.33;12.67;;;17.20;53.50;;;;;;5031919;28;20431;-48
2021/11/18 10:17:10;;;;;;;20.23;15.33;;;17.00;53.50;;;;;;5032599;28;20517;-46
2021/11/18 10:19:41;;;;;;;17.77;14.17;;;17.00;53.80;;;;;;5033018;28;20525;-47
2021/11/18 10:22:10;;;;;;;16.97;13.37;;;16.90;54.70;;;;;;5031934;28;20727;-47
2021/11/18 10:24:38;;;;;;;19.50;14.10;;;16.90;54.30;;;;;;5028707;28;20444;-46
2021/11/18 10:27:12;;;;;;;22.07;13.60;;;16.80;54.00;;;;;;5033192;28;20876;-46
2021/11/18 10:30:01;;;;;;;20.80;14.77;;;16.80;54.30;;;;;;5032242;28;20519;-48
2021/11/18 10:32:30;;;;;;;17.30;12.90;;;16.70;54.60;;;;;;5027445;28;20443;-47
2021/11/18 10:35:07;;;;;;;17.67;13.30;;;16.70;54.60;;;;;;5028068;28;20518;-46
2021/11/18 10:37:38;;;;;;;19.27;13.13;;;16.60;54.70;;;;;;5030262;28;20466;-46
2021/11/18 10:40:27;;;;;;;21.13;12.67;;;16.60;55.10;;;;;;5028688;28;20467;-47
2021/11/18 10:43:15;;;;;;;19.10;11.80;;;16.60;55.00;;;;;;5029033;28;20466;-46
2021/11/18 10:45:59;;;;;;;18.20;11.73;;;16.70;55.40;;;;;;5030589;28;20448;-46
2021/11/18 10:49:00;;;;;;;19.33;12.57;;;16.50;54.70;;;;;;5041766;28;20444;-46
2021/11/18 10:51:38;;;;;;;19.67;12.90;;;16.60;54.90;;;;;;5030677;28;20483;-46
2021/11/18 10:54:07;;;;;;;20.17;12.87;;;16.60;55.70;;;;;;5029698;28;20474;-46
2021/11/18 10:56:39;;;;;;;16.23;12.80;;;16.70;55.50;;;;;;5032596;28;20436;-48
2021/11/18 10:59:10;;;;;;;16.07;11.67;;;16.70;55.50;;;;;;5032285;28;20503;-51
2021/11/18 11:01:39;;;;;;;20.03;12.53;;;16.70;54.60;;;;;;5028237;28;20541;-50
2021/11/18 11:04:09;;;;;;;22.63;13.53;;;16.60;54.20;;;;;;5026845;28;20468;-48
2021/11/18 11:06:44;;;;;;;20.40;14.17;;;16.70;54.40;;;;;;5030697;28;20444;-51
2021/11/18 11:09:10;;;;;;;15.40;10.87;;;16.60;54.80;;;;;;5031848;28;20439;-48
2021/11/18 11:12:09;;;;;;;21.33;12.40;;;16.60;54.50;;;;;;5031971;28;20440;-51
2021/11/18 11:14:57;;;;;;;16.10;11.37;;;16.50;55.20;;;;;;5033400;28;20957;-52
2021/11/18 11:17:51;;;;;;;16.70;13.40;;;16.50;53.90;;;;;;5022029;28;20530;-51
2021/11/18 11:20:32;;;;;;;14.30;10.60;;;16.50;54.30;;;;;;5031569;28;20452;-52
2021/11/18 11:23:12;;;;;;;14.50;10.97;;;16.20;54.70;;;;;;5034161;28;20440;-49
2021/11/18 11:26:29;;;;;;;16.37;12.60;;;16.30;55.20;;;;;;5028638;28;21258;-47
2021/11/18 11:29:27;;;;;;;16.67;12.83;;;16.40;54.80;;;;;;5000797;28;20455;-51
2021/11/18 11:32:15;;;;;;;15.90;11.17;;;16.40;55.40;;;;;;5029313;28;20455;-49
2021/11/18 11:34:59;;;;;;;16.20;12.63;;;16.50;54.90;;;;;;5016855;28;20448;-51
2021/11/18 11:37:47;;;;;;;15.20;11.83;;;16.60;54.10;;;;;;5030651;28;20442;-48
2021/11/18 11:40:46;;;;;;;17.03;13.00;;;16.60;53.60;;;;;;5025038;28;20947;-48
2021/11/18 11:43:39;;;;;;;16.83;12.50;;;16.60;54.00;;;;;;5025077;28;20862;-49
2021/11/18 11:46:43;;;;;;;12.73;10.63;;;16.60;54.30;;;;;;5040068;28;20938;-49
2021/11/18 11:49:33;;;;;;;16.07;12.50;;;16.40;53.60;;;;;;5026650;28;20440;-47
2021/11/18 11:52:29;;;;;;;16.87;11.93;;;15.90;55.10;;;;;;5034137;28;21207;-49
2021/11/18 11:55:00;;;;;;;14.87;10.50;;;15.80;54.70;;;;;;5030954;28;20492;-50
2021/11/18 11:57:32;;;;;;;12.93;11.10;;;15.50;54.60;;;;;;5028655;28;20470;-48
2021/11/18 12:00:24;;;;;;;12.20;10.80;;;15.20;56.40;;;;;;5031678;28;20448;-47
2021/11/18 12:02:52;;;;;;;14.70;11.67;;;15.40;56.60;;;;;;5025702;28;20517;-47
2021/11/18 12:05:52;;;;;;;18.93;11.57;;;15.40;56.40;;;;;;5029720;28;20532;-47
2021/11/18 12:08:37;;;;;;;17.40;12.07;;;15.20;56.50;;;;;;5028577;28;20452;-48
2021/11/18 12:11:14;;;;;;;13.70;11.90;;;15.30;56.60;;;;;;5031071;28;20443;-50
2021/11/18 12:13:50;;;;;;;14.07;11.97;;;15.20;56.10;;;;;;5031626;28;20807;-51
2021/11/18 12:16:32;;;;;;;17.30;13.30;;;15.10;56.70;;;;;;5030470;28;20855;-50
2021/11/18 12:19:08;;;;;;;16.10;12.60;;;15.00;56.70;;;;;;5030979;28;20491;-52
2021/11/18 12:21:37;;;;;;;16.17;12.83;;;14.60;57.60;;;;;;5023269;28;20440;-51
2021/11/18 12:24:16;;;;;;;15.63;11.43;;;14.60;57.90;;;;;;5030057;28;20799;-51
2021/11/18 12:26:53;;;;;;;14.90;11.20;;;14.60;58.20;;;;;;5016393;28;20921;-49
2021/11/18 12:29:21;;;;;;;15.27;11.67;;;14.70;57.90;;;;;;5028090;28;20455;-47
2021/11/18 12:32:07;;;;;;;13.10;10.50;;;14.90;57.90;;;;;;5030590;28;20797;-51
2021/11/18 12:34:49;;;;;;;17.40;11.80;;;15.20;57.20;;;;;;5030366;28;20490;-47
2021/11/18 12:37:49;;;;;;;15.13;10.70;;;15.30;56.90;;;;;;5030535;28;20563;-52
2021/11/18 12:40:40;;;;;;;13.40;9.43;;;15.50;56.30;;;;;;5030682;28;20456;-51
2021/11/18 12:43:32;;;;;;;11.13;9.80;;;15.40;56.40;;;;;;5022758;28;20459;-48
2021/11/18 12:46:18;;;;;;;10.43;9.30;;;15.50;56.40;;;;;;5024675;28;20443;-48
2021/11/18 12:48:53;;;;;;;10.70;9.13;;;15.50;56.00;;;;;;5027208;28;20440;-50